sensor_id;sensor_type;location;lat;lon;timestamp;pressure;altitude;pressure_sealevel;temperature;humidity
63285;BME280;49409;55.708;37.522;2023-02-21T00:02:06;97076.75;;;-2.59;44.16
63285;BME280;49409;55.708;37.522;2023-02-21T00:04:50;97070.97;;;-2.57;43.91
63285;BME280;49409;55.708;37.522;2023-02-21T00:07:34;97071.34;;;-2.59;43.67
63285;BME280;49409;55.708;37.522;2023-02-21T00:10:17;97070.59;;;-2.60;44.34
63285;BME280;49409;55.708;37.522;2023-02-21T00:13:02;97069.06;;;-2.61;43.58
63285;BME280;49409;55.708;37.522;2023-02-21T00:15:46;97070.59;;;-2.60;43.63
63285;BME280;49409;55.708;37.522;2023-02-21T00:18:34;97066.00;;;-2.63;44.00
63285;BME280;49409;55.708;37.522;2023-02-21T00:21:18;97063.69;;;-2.68;44.44
63285;BME280;49409;55.708;37.522;2023-02-21T00:24:01;97061.38;;;-2.69;43.81
63285;BME280;49409;55.708;37.522;2023-02-21T00:26:45;97061.00;;;-2.68;44.03
63285;BME280;49409;55.708;37.522;2023-02-21T00:29:29;97058.28;;;-2.68;43.54
63285;BME280;49409;55.708;37.522;2023-02-21T00:32:13;97045.97;;;-2.69;43.82
63285;BME280;49409;55.708;37.522;2023-02-21T00:34:57;97050.22;;;-2.68;44.21
63285;BME280;49409;55.708;37.522;2023-02-21T00:37:41;97048.69;;;-2.65;43.55
63285;BME280;49409;55.708;37.522;2023-02-21T00:40:25;97052.53;;;-2.63;44.08
63285;BME280;49409;55.708;37.522;2023-02-21T00:43:09;97047.53;;;-2.61;44.30
63285;BME280;49409;55.708;37.522;2023-02-21T00:45:53;97042.91;;;-2.60;43.44
63285;BME280;49409;55.708;37.522;2023-02-21T00:48:36;97036.75;;;-2.64;44.19
63285;BME280;49409;55.708;37.522;2023-02-21T00:51:20;97032.91;;;-2.67;43.59
63285;BME280;49409;55.708;37.522;2023-02-21T00:54:04;97034.44;;;-2.66;44.40
63285;BME280;49409;55.708;37.522;2023-02-21T00:56:48;97025.22;;;-2.65;44.40
63285;BME280;49409;55.708;37.522;2023-02-21T00:59:32;97020.63;;;-2.68;43.54
63285;BME280;49409;55.708;37.522;2023-02-21T01:02:16;97019.84;;;-2.72;43.64
63285;BME280;49409;55.708;37.522;2023-02-21T01:05:00;97016.00;;;-2.78;43.69
63285;BME280;49409;55.708;37.522;2023-02-21T01:07:44;97009.88;;;-2.82;44.02
63285;BME280;49409;55.708;37.522;2023-02-21T01:10:28;97012.94;;;-2.80;43.68
63285;BME280;49409;55.708;37.522;2023-02-21T01:13:12;97012.56;;;-2.82;43.87
63285;BME280;49409;55.708;37.522;2023-02-21T01:15:56;97014.88;;;-2.84;43.63
63285;BME280;49409;55.708;37.522;2023-02-21T01:18:40;97006.41;;;-2.86;43.77
63285;BME280;49409;55.708;37.522;2023-02-21T01:21:24;97014.09;;;-2.88;44.29
63285;BME280;49409;55.708;37.522;2023-02-21T01:24:09;97008.31;;;-2.90;44.15
63285;BME280;49409;55.708;37.522;2023-02-21T01:26:54;97003.72;;;-2.93;43.72
63285;BME280;49409;55.708;37.522;2023-02-21T01:29:38;97000.66;;;-2.95;44.58
63285;BME280;49409;55.708;37.522;2023-02-21T01:32:22;96987.56;;;-2.93;44.29
63285;BME280;49409;55.708;37.522;2023-02-21T01:35:06;96986.41;;;-2.92;43.86
63285;BME280;49409;55.708;37.522;2023-02-21T01:37:50;97000.25;;;-2.97;43.71
63285;BME280;49409;55.708;37.522;2023-02-21T01:40:36;96990.63;;;-3.02;44.61
63285;BME280;49409;55.708;37.522;2023-02-21T01:43:21;96989.09;;;-3.07;43.67
63285;BME280;49409;55.708;37.522;2023-02-21T01:46:05;96987.19;;;-3.17;44.09
63285;BME280;49409;55.708;37.522;2023-02-21T01:48:52;96986.03;;;-3.23;43.79
63285;BME280;49409;55.708;37.522;2023-02-21T01:51:38;96990.25;;;-3.36;44.22
63285;BME280;49409;55.708;37.522;2023-02-21T01:54:22;96991.41;;;-3.45;44.16
63285;BME280;49409;55.708;37.522;2023-02-21T01:57:08;96990.22;;;-3.54;44.42
63285;BME280;49409;55.708;37.522;2023-02-21T01:59:52;96992.91;;;-3.58;44.32
63285;BME280;49409;55.708;37.522;2023-02-21T02:02:41;96987.91;;;-3.63;44.72
63285;BME280;49409;55.708;37.522;2023-02-21T02:05:29;96992.13;;;-3.66;44.22
63285;BME280;49409;55.708;37.522;2023-02-21T02:08:13;96996.72;;;-3.70;44.23
63285;BME280;49409;55.708;37.522;2023-02-21T02:11:22;96987.50;;;-3.76;44.21
63285;BME280;49409;55.708;37.522;2023-02-21T02:14:09;96989.78;;;-3.82;44.29
63285;BME280;49409;55.708;37.522;2023-02-21T02:16:50;96992.06;;;-3.84;44.03
63285;BME280;49409;55.708;37.522;2023-02-21T02:30:15;96998.94;;;-4.01;44.06
63285;BME280;49409;55.708;37.522;2023-02-21T02:35:30;96988.91;;;-4.11;44.27
63285;BME280;49409;55.708;37.522;2023-02-21T02:38:00;96990.44;;;-4.17;44.35
63285;BME280;49409;55.708;37.522;2023-02-21T02:45:42;96989.16;;;-4.41;44.59
63285;BME280;49409;55.708;37.522;2023-02-21T02:49:10;96987.59;;;-4.49;44.45
63285;BME280;49409;55.708;37.522;2023-02-21T02:51:07;96989.44;;;-4.61;44.33
63285;BME280;49409;55.708;37.522;2023-02-21T02:53:33;96993.25;;;-4.65;44.35
63285;BME280;49409;55.708;37.522;2023-02-21T02:56:02;96991.72;;;-4.70;44.80
63285;BME280;49409;55.708;37.522;2023-02-21T02:58:30;96988.59;;;-4.75;44.69
63285;BME280;49409;55.708;37.522;2023-02-21T03:06:21;96986.91;;;-4.98;44.63
63285;BME280;49409;55.708;37.522;2023-02-21T03:11:24;96987.97;;;-5.10;44.63
63285;BME280;49409;55.708;37.522;2023-02-21T03:14:03;96989.13;;;-5.11;44.56
63285;BME280;49409;55.708;37.522;2023-02-21T03:16:35;96994.53;;;-5.07;44.48
63285;BME280;49409;55.708;37.522;2023-02-21T03:19:09;96996.81;;;-5.06;44.59
63285;BME280;49409;55.708;37.522;2023-02-21T03:21:44;96996.81;;;-5.06;44.37
63285;BME280;49409;55.708;37.522;2023-02-21T03:24:12;96996.81;;;-5.06;44.63
63285;BME280;49409;55.708;37.522;2023-02-21T03:26:39;97002.56;;;-5.04;44.49
63285;BME280;49409;55.708;37.522;2023-02-21T03:29:06;96996.88;;;-4.99;44.48
63285;BME280;49409;55.708;37.522;2023-02-21T03:31:34;97001.91;;;-4.93;44.29
63285;BME280;49409;55.708;37.522;2023-02-21T03:34:00;96995.78;;;-4.90;44.08
63285;BME280;49409;55.708;37.522;2023-02-21T03:36:26;96987.38;;;-4.89;44.18
63285;BME280;49409;55.708;37.522;2023-02-21T03:38:51;96986.22;;;-4.84;44.19
63285;BME280;49409;55.708;37.522;2023-02-21T03:41:17;96984.34;;;-4.80;43.95
63285;BME280;49409;55.708;37.522;2023-02-21T03:43:42;96979.75;;;-4.76;44.07
63285;BME280;49409;55.708;37.522;2023-02-21T03:46:07;96985.53;;;-4.74;44.06
63285;BME280;49409;55.708;37.522;2023-02-21T03:48:33;96979.03;;;-4.73;44.21
63285;BME280;49409;55.708;37.522;2023-02-21T03:50:59;96971.78;;;-4.69;44.09
63285;BME280;49409;55.708;37.522;2023-02-21T03:53:25;96981.38;;;-4.68;44.14
63285;BME280;49409;55.708;37.522;2023-02-21T03:55:50;96977.91;;;-4.72;44.08
63285;BME280;49409;55.708;37.522;2023-02-21T03:58:15;96977.13;;;-4.69;43.94
63285;BME280;49409;55.708;37.522;2023-02-21T04:00:41;96976.34;;;-4.73;43.80
63285;BME280;49409;55.708;37.522;2023-02-21T04:03:06;96979.78;;;-4.72;44.44
63285;BME280;49409;55.708;37.522;2023-02-21T04:05:31;96972.53;;;-4.72;44.12
63285;BME280;49409;55.708;37.522;2023-02-21T04:07:57;96971.34;;;-4.74;43.95
63285;BME280;49409;55.708;37.522;2023-02-21T04:10:22;96980.53;;;-4.79;44.06
63285;BME280;49409;55.708;37.522;2023-02-21T04:12:47;96978.59;;;-4.82;44.29
63285;BME280;49409;55.708;37.522;2023-02-21T04:15:12;96979.69;;;-4.90;43.89
63285;BME280;49409;55.708;37.522;2023-02-21T04:17:38;96980.78;;;-4.99;44.50
63285;BME280;49409;55.708;37.522;2023-02-21T04:20:03;96980.00;;;-5.03;44.17
63285;BME280;49409;55.708;37.522;2023-02-21T04:22:29;96978.44;;;-5.07;44.22
63285;BME280;49409;55.708;37.522;2023-02-21T04:24:54;96974.53;;;-5.13;44.06
63285;BME280;49409;55.708;37.522;2023-02-21T04:27:19;96977.56;;;-5.19;43.98
63285;BME280;49409;55.708;37.522;2023-02-21T04:29:45;96980.59;;;-5.24;44.22
63285;BME280;49409;55.708;37.522;2023-02-21T04:32:10;96989.75;;;-5.28;44.42
63285;BME280;49409;55.708;37.522;2023-02-21T04:34:36;96984.75;;;-5.30;44.11
63285;BME280;49409;55.708;37.522;2023-02-21T04:37:01;96989.69;;;-5.35;44.20
63285;BME280;49409;55.708;37.522;2023-02-21T04:39:26;97002.63;;;-5.41;44.23
63285;BME280;49409;55.708;37.522;2023-02-21T04:41:52;96998.78;;;-5.44;44.14
63285;BME280;49409;55.708;37.522;2023-02-21T04:44:17;97005.66;;;-5.46;44.11
63285;BME280;49409;55.708;37.522;2023-02-21T04:46:42;97001.84;;;-5.49;44.08
63285;BME280;49409;55.708;37.522;2023-02-21T04:49:08;96997.91;;;-5.55;44.21
63285;BME280;49409;55.708;37.522;2023-02-21T04:51:34;96993.31;;;-5.58;44.14
63285;BME280;49409;55.708;37.522;2023-02-21T04:54:00;97005.50;;;-5.64;44.18
63285;BME280;49409;55.708;37.522;2023-02-21T04:56:26;97013.13;;;-5.66;44.17
63285;BME280;49409;55.708;37.522;2023-02-21T04:58:52;97010.06;;;-5.65;44.05
63285;BME280;49409;55.708;37.522;2023-02-21T05:01:18;97014.31;;;-5.64;44.02
63285;BME280;49409;55.708;37.522;2023-02-21T05:03:43;97015.06;;;-5.63;44.27
63285;BME280;49409;55.708;37.522;2023-02-21T05:06:09;97012.78;;;-5.61;44.18
63285;BME280;49409;55.708;37.522;2023-02-21T05:08:34;97015.84;;;-5.63;44.07
63285;BME280;49409;55.708;37.522;2023-02-21T05:11:00;97010.06;;;-5.68;44.17
63285;BME280;49409;55.708;37.522;2023-02-21T05:13:25;97014.25;;;-5.67;44.36
63285;BME280;49409;55.708;37.522;2023-02-21T05:15:50;97005.50;;;-5.64;44.02
63285;BME280;49409;55.708;37.522;2023-02-21T05:18:16;97010.13;;;-5.61;44.27
63285;BME280;49409;55.708;37.522;2023-02-21T05:20:47;97012.38;;;-5.63;44.13
63285;BME280;49409;55.708;37.522;2023-02-21T05:23:12;97016.22;;;-5.64;44.02
63285;BME280;49409;55.708;37.522;2023-02-21T05:25:41;97007.03;;;-5.63;44.06
63285;BME280;49409;55.708;37.522;2023-02-21T05:28:06;97008.94;;;-5.64;43.85
63285;BME280;49409;55.708;37.522;2023-02-21T05:30:32;97007.13;;;-5.56;43.98
63285;BME280;49409;55.708;37.522;2023-02-21T05:32:57;97017.88;;;-5.52;43.82
63285;BME280;49409;55.708;37.522;2023-02-21T05:35:22;97015.63;;;-5.47;43.91
63285;BME280;49409;55.708;37.522;2023-02-21T05:37:48;97022.50;;;-5.46;43.57
63285;BME280;49409;55.708;37.522;2023-02-21T05:40:13;97017.97;;;-5.42;43.63
63285;BME280;49409;55.708;37.522;2023-02-21T05:42:39;97022.94;;;-5.40;43.87
63285;BME280;49409;55.708;37.522;2023-02-21T05:45:06;97020.22;;;-5.44;43.70
63285;BME280;49409;55.708;37.522;2023-02-21T05:47:32;97017.22;;;-5.39;43.93
63285;BME280;49409;55.708;37.522;2023-02-21T05:49:57;97021.13;;;-5.32;43.78
63285;BME280;49409;55.708;37.522;2023-02-21T05:52:23;97018.84;;;-5.30;43.56
63285;BME280;49409;55.708;37.522;2023-02-21T05:54:48;97019.63;;;-5.26;43.59
63285;BME280;49409;55.708;37.522;2023-02-21T05:57:13;97020.34;;;-5.29;43.73
63285;BME280;49409;55.708;37.522;2023-02-21T05:59:39;97014.28;;;-5.26;43.68
63285;BME280;49409;55.708;37.522;2023-02-21T06:02:04;97019.66;;;-5.23;43.76
63285;BME280;49409;55.708;37.522;2023-02-21T06:04:29;97012.78;;;-5.20;43.58
63285;BME280;49409;55.708;37.522;2023-02-21T06:06:55;97016.63;;;-5.18;43.44
63285;BME280;49409;55.708;37.522;2023-02-21T06:09:28;97008.63;;;-5.14;43.39
63285;BME280;49409;55.708;37.522;2023-02-21T06:11:55;97019.75;;;-5.12;43.44
63285;BME280;49409;55.708;37.522;2023-02-21T06:14:20;97018.97;;;-5.12;43.29
63285;BME280;49409;55.708;37.522;2023-02-21T06:16:46;97015.88;;;-5.18;43.48
63285;BME280;49409;55.708;37.522;2023-02-21T06:19:12;97027.34;;;-5.21;43.19
63285;BME280;49409;55.708;37.522;2023-02-21T06:21:38;97020.44;;;-5.22;43.44
63285;BME280;49409;55.708;37.522;2023-02-21T06:24:05;97028.88;;;-5.20;43.37
63285;BME280;49409;55.708;37.522;2023-02-21T06:26:30;97020.44;;;-5.22;43.45
63285;BME280;49409;55.708;37.522;2023-02-21T06:28:56;97025.06;;;-5.19;43.15
63285;BME280;49409;55.708;37.522;2023-02-21T06:31:21;97023.59;;;-5.13;43.25
63285;BME280;49409;55.708;37.522;2023-02-21T06:33:47;97020.94;;;-5.09;43.17
63285;BME280;49409;55.708;37.522;2023-02-21T06:36:14;97025.91;;;-5.08;42.75
63285;BME280;49409;55.708;37.522;2023-02-21T06:38:39;97030.53;;;-5.05;43.12
63285;BME280;49409;55.708;37.522;2023-02-21T06:41:06;97024.41;;;-5.05;43.19
63285;BME280;49409;55.708;37.522;2023-02-21T06:43:31;97033.59;;;-5.06;42.96
63285;BME280;49409;55.708;37.522;2023-02-21T06:45:57;97023.59;;;-5.13;42.97
63285;BME280;49409;55.708;37.522;2023-02-21T06:48:22;97028.19;;;-5.10;43.15
63285;BME280;49409;55.708;37.522;2023-02-21T06:50:47;97033.59;;;-5.06;42.75
63285;BME280;49409;55.708;37.522;2023-02-21T06:53:13;97025.50;;;-5.10;43.01
63285;BME280;49409;55.708;37.522;2023-02-21T06:55:38;97023.19;;;-5.15;43.31
63285;BME280;49409;55.708;37.522;2023-02-21T06:58:03;97032.38;;;-5.12;43.11
63285;BME280;49409;55.708;37.522;2023-02-21T07:00:29;97026.66;;;-5.11;43.06
63285;BME280;49409;55.708;37.522;2023-02-21T07:02:54;97037.38;;;-5.11;43.17
63285;BME280;49409;55.708;37.522;2023-02-21T07:05:20;97032.41;;;-5.09;42.95
63285;BME280;49409;55.708;37.522;2023-02-21T07:07:45;97031.00;;;-4.95;42.89
63285;BME280;49409;55.708;37.522;2023-02-21T07:10:11;97035.28;;;-4.87;42.78
63285;BME280;49409;55.708;37.522;2023-02-21T07:12:37;97037.25;;;-4.77;42.68
63285;BME280;49409;55.708;37.522;2023-02-21T07:15:02;97040.03;;;-4.63;42.75
63285;BME280;49409;55.708;37.522;2023-02-21T07:17:28;97037.81;;;-4.53;42.37
63285;BME280;49409;55.708;37.522;2023-02-21T07:19:53;97040.09;;;-4.55;42.28
63285;BME280;49409;55.708;37.522;2023-02-21T07:22:19;97040.94;;;-4.44;42.48
63285;BME280;49409;55.708;37.522;2023-02-21T07:24:50;97046.31;;;-4.37;42.61
63285;BME280;49409;55.708;37.522;2023-02-21T07:27:15;97037.22;;;-4.22;42.48
63285;BME280;49409;55.708;37.522;2023-02-21T07:29:40;97041.13;;;-4.05;42.25
63285;BME280;49409;55.708;37.522;2023-02-21T07:32:06;97046.56;;;-3.83;42.24
63285;BME280;49409;55.708;37.522;2023-02-21T07:34:31;97040.47;;;-3.69;41.94
63285;BME280;49409;55.708;37.522;2023-02-21T07:36:56;97043.59;;;-3.60;42.14
63285;BME280;49409;55.708;37.522;2023-02-21T07:39:22;97042.84;;;-3.53;42.06
63285;BME280;49409;55.708;37.522;2023-02-21T07:41:47;97041.34;;;-3.36;41.54
63285;BME280;49409;55.708;37.522;2023-02-21T07:44:13;97042.91;;;-3.21;40.97
63285;BME280;49409;55.708;37.522;2023-02-21T07:46:39;97048.28;;;-3.07;40.88
63285;BME280;49409;55.708;37.522;2023-02-21T07:49:07;97048.28;;;-3.21;40.59
63285;BME280;49409;55.708;37.522;2023-02-21T07:51:33;97040.56;;;-3.26;40.72
63285;BME280;49409;55.708;37.522;2023-02-21T07:54:00;97049.81;;;-3.20;40.73
63285;BME280;49409;55.708;37.522;2023-02-21T07:56:25;97047.50;;;-3.18;40.60
63285;BME280;49409;55.708;37.522;2023-02-21T07:58:50;97055.56;;;-3.25;39.45
63285;BME280;49409;55.708;37.522;2023-02-21T08:01:16;97052.91;;;-3.22;40.62
63285;BME280;49409;55.708;37.522;2023-02-21T08:03:41;97049.47;;;-3.08;41.02
63285;BME280;49409;55.708;37.522;2023-02-21T08:06:07;97053.28;;;-2.94;41.41
63285;BME280;49409;55.708;37.522;2023-02-21T08:08:33;97052.91;;;-2.86;41.16
63285;BME280;49409;55.708;37.522;2023-02-21T08:10:58;97057.53;;;-2.72;40.69
63285;BME280;49409;55.708;37.522;2023-02-21T08:13:23;97057.50;;;-2.65;40.94
63285;BME280;49409;55.708;37.522;2023-02-21T08:15:49;97050.59;;;-2.51;41.10
63285;BME280;49409;55.708;37.522;2023-02-21T08:18:19;97049.78;;;-2.37;40.39
63285;BME280;49409;55.708;37.522;2023-02-21T08:20:48;97052.47;;;-2.30;40.89
63285;BME280;49409;55.708;37.522;2023-02-21T08:23:13;97043.59;;;-2.16;39.90
63285;BME280;49409;55.708;37.522;2023-02-21T08:25:39;97051.69;;;-2.13;39.84
63285;BME280;49409;55.708;37.522;2023-02-21T08:28:04;97050.88;;;-2.10;40.42
63285;BME280;49409;55.708;37.522;2023-02-21T08:30:29;97059.00;;;-2.17;39.38
63285;BME280;49409;55.708;37.522;2023-02-21T08:32:55;97065.19;;;-2.42;39.64
63285;BME280;49409;55.708;37.522;2023-02-21T08:35:20;97058.25;;;-2.39;40.56
63285;BME280;49409;55.708;37.522;2023-02-21T08:37:46;97060.63;;;-2.63;37.11
63285;BME280;49409;55.708;37.522;2023-02-21T08:40:12;97065.97;;;-2.48;40.25
63285;BME280;49409;55.708;37.522;2023-02-21T08:42:38;97062.13;;;-2.54;39.94
63285;BME280;49409;55.708;37.522;2023-02-21T08:45:04;97071.38;;;-2.73;38.27
63285;BME280;49409;55.708;37.522;2023-02-21T08:47:29;97060.63;;;-2.63;39.96
63285;BME280;49409;55.708;37.522;2023-02-21T08:49:54;97062.53;;;-2.52;40.08
63285;BME280;49409;55.708;37.522;2023-02-21T08:52:20;97065.22;;;-2.52;40.34
63285;BME280;49409;55.708;37.522;2023-02-21T08:54:45;97061.75;;;-2.56;40.21
63285;BME280;49409;55.708;37.522;2023-02-21T08:57:11;97061.38;;;-2.73;39.30
63285;BME280;49409;55.708;37.522;2023-02-21T08:59:40;97065.19;;;-2.67;39.47
63285;BME280;49409;55.708;37.522;2023-02-21T09:02:09;97067.53;;;-2.62;38.80
63285;BME280;49409;55.708;37.522;2023-02-21T09:04:39;97063.31;;;-2.63;39.49
63285;BME280;49409;55.708;37.522;2023-02-21T09:07:05;97070.59;;;-2.74;38.66
63285;BME280;49409;55.708;37.522;2023-02-21T09:09:30;97066.00;;;-2.84;40.23
63285;BME280;49409;55.708;37.522;2023-02-21T09:11:56;97062.13;;;-2.90;38.64
63285;BME280;49409;55.708;37.522;2023-02-21T09:14:21;97064.47;;;-2.78;39.77
63285;BME280;49409;55.708;37.522;2023-02-21T09:16:46;97072.91;;;-2.62;40.09
63285;BME280;49409;55.708;37.522;2023-02-21T09:19:12;97069.06;;;-2.43;39.77
63285;BME280;49409;55.708;37.522;2023-02-21T09:21:37;97068.25;;;-2.36;38.87
63285;BME280;49409;55.708;37.522;2023-02-21T09:24:09;97074.41;;;-2.32;38.84
63285;BME280;49409;55.708;37.522;2023-02-21T09:26:37;97071.38;;;-2.45;39.41
63285;BME280;49409;55.708;37.522;2023-02-21T09:29:02;97069.81;;;-2.42;38.42
63285;BME280;49409;55.708;37.522;2023-02-21T09:31:28;97070.56;;;-2.42;38.97
63285;BME280;49409;55.708;37.522;2023-02-21T09:33:53;97078.69;;;-2.52;37.15
63285;BME280;49409;55.708;37.522;2023-02-21T09:36:18;97069.44;;;-2.55;38.28
63285;BME280;49409;55.708;37.522;2023-02-21T09:38:48;97068.25;;;-2.43;38.95
63285;BME280;49409;55.708;37.522;2023-02-21T09:41:14;97072.09;;;-2.26;38.42
63285;BME280;49409;55.708;37.522;2023-02-21T09:43:40;97073.63;;;-2.18;38.52
63285;BME280;49409;55.708;37.522;2023-02-21T09:48:47;97073.59;;;-2.07;38.00
63285;BME280;49409;55.708;37.522;2023-02-21T09:51:13;97062.81;;;-2.11;38.06
63285;BME280;49409;55.708;37.522;2023-02-21T09:53:41;97063.22;;;-2.20;36.99
63285;BME280;49409;55.708;37.522;2023-02-21T09:56:10;97071.31;;;-2.20;38.19
63285;BME280;49409;55.708;37.522;2023-02-21T09:58:38;97068.22;;;-2.14;38.43
63285;BME280;49409;55.708;37.522;2023-02-21T10:01:08;97073.63;;;-2.22;37.35
63285;BME280;49409;55.708;37.522;2023-02-21T10:03:46;97075.16;;;-2.21;37.41
63285;BME280;49409;55.708;37.522;2023-02-21T10:08:52;97073.66;;;-2.29;37.33
63285;BME280;49409;55.708;37.522;2023-02-21T10:11:24;97080.59;;;-2.49;38.87
63285;BME280;49409;55.708;37.522;2023-02-21T10:16:43;97077.09;;;-2.32;38.01
63285;BME280;49409;55.708;37.522;2023-02-21T10:19:15;97080.91;;;-2.11;38.07
63285;BME280;49409;55.708;37.522;2023-02-21T10:21:47;97077.03;;;-2.00;37.91
63285;BME280;49409;55.708;37.522;2023-02-21T10:24:17;97080.09;;;-1.97;38.23
63285;BME280;49409;55.708;37.522;2023-02-21T10:26:56;97082.78;;;-1.97;38.77
63285;BME280;49409;55.708;37.522;2023-02-21T10:29:25;97084.75;;;-2.05;37.03
63285;BME280;49409;55.708;37.522;2023-02-21T10:31:54;97075.91;;;-2.09;38.31
63285;BME280;49409;55.708;37.522;2023-02-21T10:34:22;97087.03;;;-1.96;37.06
63285;BME280;49409;55.708;37.522;2023-02-21T10:36:49;97085.09;;;-1.92;37.77
63285;BME280;49409;55.708;37.522;2023-02-21T10:39:16;97090.44;;;-1.78;38.44
63285;BME280;49409;55.708;37.522;2023-02-21T10:41:43;97089.66;;;-1.68;38.53
63285;BME280;49409;55.708;37.522;2023-02-21T10:44:10;97095.75;;;-1.60;37.80
63285;BME280;49409;55.708;37.522;2023-02-21T10:46:39;97097.38;;;-1.77;36.20
63285;BME280;49409;55.708;37.522;2023-02-21T10:51:43;97108.22;;;-1.95;37.64
63285;BME280;49409;55.708;37.522;2023-02-21T10:54:18;97112.84;;;-1.99;37.38
63285;BME280;49409;55.708;37.522;2023-02-21T10:56:45;97111.28;;;-1.93;37.60
63285;BME280;49409;55.708;37.522;2023-02-21T10:59:13;97117.47;;;-2.03;37.70
63285;BME280;49409;55.708;37.522;2023-02-21T11:01:44;97118.22;;;-2.03;38.29
63285;BME280;49409;55.708;37.522;2023-02-21T11:06:54;97124.78;;;-2.22;38.55
63285;BME280;49409;55.708;37.522;2023-02-21T11:14:35;97128.28;;;-2.25;37.70
63285;BME280;49409;55.708;37.522;2023-02-21T11:17:11;97130.59;;;-2.34;38.01
63285;BME280;49409;55.708;37.522;2023-02-21T11:22:25;97143.66;;;-2.54;37.93
63285;BME280;49409;55.708;37.522;2023-02-21T11:25:07;97140.59;;;-2.52;38.66
63285;BME280;49409;55.708;37.522;2023-02-21T11:27:42;97144.81;;;-2.66;37.92
63285;BME280;49409;55.708;37.522;2023-02-21T11:32:37;97142.91;;;-2.40;37.53
63285;BME280;49409;55.708;37.522;2023-02-21T11:35:20;97141.75;;;-2.46;38.04
63285;BME280;49409;55.708;37.522;2023-02-21T11:37:57;97149.44;;;-2.52;37.48
63285;BME280;49409;55.708;37.522;2023-02-21T11:40:43;97156.38;;;-2.54;37.93
63285;BME280;49409;55.708;37.522;2023-02-21T11:43:23;97149.81;;;-2.71;37.80
63285;BME280;49409;55.708;37.522;2023-02-21T11:48:24;97167.50;;;-2.63;37.58
63285;BME280;49409;55.708;37.522;2023-02-21T11:50:55;97155.22;;;-2.53;38.62
63285;BME280;49409;55.708;37.522;2023-02-21T11:53:22;97164.41;;;-2.69;36.73
63285;BME280;49409;55.708;37.522;2023-02-21T11:55:54;97160.56;;;-2.75;37.54
63285;BME280;49409;55.708;37.522;2023-02-21T11:58:26;97163.66;;;-2.80;38.25
63285;BME280;49409;55.708;37.522;2023-02-21T12:01:14;97167.09;;;-2.87;38.08
63285;BME280;49409;55.708;37.522;2023-02-21T12:32:50;97186.75;;;-2.50;38.45
63285;BME280;49409;55.708;37.522;2023-02-21T12:38:30;97209.00;;;-2.82;38.72
63285;BME280;49409;55.708;37.522;2023-02-21T12:46:01;97229.69;;;-3.01;38.13
63285;BME280;49409;55.708;37.522;2023-02-21T12:49:17;97233.56;;;-3.02;38.88
63285;BME280;49409;55.708;37.522;2023-02-21T12:51:47;97234.69;;;-3.10;38.86
63285;BME280;49409;55.708;37.522;2023-02-21T12:54:16;97232.38;;;-3.04;38.97
63285;BME280;49409;55.708;37.522;2023-02-21T12:56:53;97244.31;;;-3.02;38.88
63285;BME280;49409;55.708;37.522;2023-02-21T13:05:08;97248.53;;;-3.08;38.64
63285;BME280;49409;55.708;37.522;2023-02-21T13:07:40;97251.13;;;-3.29;38.72
63285;BME280;49409;55.708;37.522;2023-02-21T13:10:16;97254.94;;;-3.30;38.71
63285;BME280;49409;55.708;37.522;2023-02-21T13:12:44;97256.44;;;-3.36;38.55
63285;BME280;49409;55.708;37.522;2023-02-21T13:17:36;97265.63;;;-3.45;39.17
63285;BME280;49409;55.708;37.522;2023-02-21T13:20:15;97272.91;;;-3.42;38.45
63285;BME280;49409;55.708;37.522;2023-02-21T13:26:00;97283.84;;;-3.79;39.13
63285;BME280;49409;55.708;37.522;2023-02-21T13:28:29;97289.91;;;-3.86;39.37
63285;BME280;49409;55.708;37.522;2023-02-21T13:30:58;97292.84;;;-4.02;39.49
63285;BME280;49409;55.708;37.522;2023-02-21T13:33:29;97299.75;;;-4.04;39.02
63285;BME280;49409;55.708;37.522;2023-02-21T13:35:59;97312.03;;;-4.03;39.46
63285;BME280;49409;55.708;37.522;2023-02-21T13:38:26;97312.84;;;-3.95;39.06
63285;BME280;49409;55.708;37.522;2023-02-21T13:41:01;97311.22;;;-4.07;39.27
63285;BME280;49409;55.708;37.522;2023-02-21T13:43:28;97316.19;;;-4.09;39.49
63285;BME280;49409;55.708;37.522;2023-02-21T13:45:54;97321.78;;;-4.25;39.25
63285;BME280;49409;55.708;37.522;2023-02-21T13:48:39;97318.84;;;-4.13;39.11
63285;BME280;49409;55.708;37.522;2023-02-21T13:51:05;97326.66;;;-4.38;39.35
63285;BME280;49409;55.708;37.522;2023-02-21T13:53:31;97335.97;;;-4.62;39.69
63285;BME280;49409;55.708;37.522;2023-02-21T13:58:29;97332.31;;;-4.47;39.25
63285;BME280;49409;55.708;37.522;2023-02-21T14:01:16;97337.63;;;-4.54;39.66
63285;BME280;49409;55.708;37.522;2023-02-21T14:03:42;97348.53;;;-4.36;39.69
63285;BME280;49409;55.708;37.522;2023-02-21T14:06:14;97336.56;;;-4.80;39.49
63285;BME280;49409;55.708;37.522;2023-02-21T14:16:09;97386.56;;;-5.21;40.76
63285;BME280;49409;55.708;37.522;2023-02-21T14:21:15;97379.50;;;-4.76;40.39
63285;BME280;49409;55.708;37.522;2023-02-21T14:23:50;97388.47;;;-4.65;39.76
63285;BME280;49409;55.708;37.522;2023-02-21T14:26:36;97392.59;;;-4.71;40.11
63285;BME280;49409;55.708;37.522;2023-02-21T14:34:26;97408.16;;;-4.53;40.32
63285;BME280;49409;55.708;37.522;2023-02-21T14:36:51;97409.06;;;-4.42;39.91
63285;BME280;49409;55.708;37.522;2023-02-21T14:39:18;97417.50;;;-4.44;39.66
63285;BME280;49409;55.708;37.522;2023-02-21T14:44:23;97432.72;;;-4.51;40.04
63285;BME280;49409;55.708;37.522;2023-02-21T14:47:12;97429.94;;;-4.59;40.18
63285;BME280;49409;55.708;37.522;2023-02-21T14:50:03;97448.66;;;-4.66;40.20
63285;BME280;49409;55.708;37.522;2023-02-21T14:55:40;97454.19;;;-4.82;40.38
63285;BME280;49409;55.708;37.522;2023-02-21T14:58:25;97448.44;;;-4.80;40.56
63285;BME280;49409;55.708;37.522;2023-02-21T15:04:17;97471.75;;;-4.84;40.74
63285;BME280;49409;55.708;37.522;2023-02-21T15:06:20;97461.13;;;-5.04;40.98
63285;BME280;49409;55.708;37.522;2023-02-21T15:08:47;97468.66;;;-4.86;41.08
63285;BME280;49409;55.708;37.522;2023-02-21T15:11:18;97473.88;;;-4.70;40.82
63285;BME280;49409;55.708;37.522;2023-02-21T15:13:44;97484.25;;;-4.69;40.65
63285;BME280;49409;55.708;37.522;2023-02-21T15:16:11;97490.03;;;-4.67;40.45
63285;BME280;49409;55.708;37.522;2023-02-21T15:18:56;97487.84;;;-5.11;41.53